sensor_id;sensor_type;location;lat;lon;timestamp;pressure;altitude;pressure_sealevel;temperature;humidity
57668;BME280;43499;52.366;12.912;2023-03-26T00:00:12;99892.00;;;7.14;100.00
57668;BME280;43499;52.366;12.912;2023-03-26T00:01:18;99941.31;;;7.42;100.00
57668;BME280;43499;52.366;12.912;2023-03-26T00:02:20;99935.97;;;7.40;100.00
57668;BME280;43499;52.366;12.912;2023-03-26T00:03:23;99954.38;;;7.42;100.00
57668;BME280;43499;52.366;12.912;2023-03-26T00:04:24;99944.19;;;7.45;100.00
57668;BME280;43499;52.366;12.912;2023-03-26T00:05:25;99898.28;;;7.16;100.00
57668;BME280;43499;52.366;12.912;2023-03-26T00:06:28;99944.19;;;7.45;100.00
57668;BME280;43499;52.366;12.912;2023-03-26T00:07:31;99869.09;;;7.00;100.00
57668;BME280;43499;52.366;12.912;2023-03-26T00:08:36;99929.59;;;7.26;100.00
57668;BME280;43499;52.366;12.912;2023-03-26T00:09:38;99906.69;;;7.12;100.00
57668;BME280;43499;52.366;12.912;2023-03-26T00:10:40;99933.56;;;7.21;100.00
57668;BME280;43499;52.366;12.912;2023-03-26T00:11:44;99913.31;;;7.08;100.00
57668;BME280;43499;52.366;12.912;2023-03-26T00:12:46;99913.72;;;7.13;100.00
57668;BME280;43499;52.366;12.912;2023-03-26T00:13:47;99936.97;;;7.20;100.00
57668;BME280;43499;52.366;12.912;2023-03-26T00:14:48;99961.84;;;7.37;100.00
57668;BME280;43499;52.366;12.912;2023-03-26T00:15:51;99939.72;;;7.12;100.00
57668;BME280;43499;52.366;12.912;2023-03-26T00:16:52;99924.97;;;7.02;100.00
57668;BME280;43499;52.366;12.912;2023-03-26T00:17:53;99945.22;;;7.15;100.00
57668;BME280;43499;52.366;12.912;2023-03-26T00:18:56;99932.03;;;7.03;100.00
57668;BME280;43499;52.366;12.912;2023-03-26T00:19:57;99925.91;;;7.02;100.00
57668;BME280;43499;52.366;12.912;2023-03-26T00:21:01;99927.84;;;7.05;100.00
57668;BME280;43499;52.366;12.912;2023-03-26T00:22:03;99942.59;;;7.15;100.00
57668;BME280;43499;52.366;12.912;2023-03-26T00:23:04;99967.38;;;7.30;100.00
57668;BME280;43499;52.366;12.912;2023-03-26T00:24:09;99958.97;;;7.34;100.00
57668;BME280;43499;52.366;12.912;2023-03-26T00:25:11;99915.72;;;7.05;100.00
57668;BME280;43499;52.366;12.912;2023-03-26T00:26:14;99937.78;;;7.09;100.00
57668;BME280;43499;52.366;12.912;2023-03-26T00:27:16;99939.59;;;7.10;100.00
57668;BME280;43499;52.366;12.912;2023-03-26T00:28:17;99932.41;;;7.18;100.00
57668;BME280;43499;52.366;12.912;2023-03-26T00:29:21;99974.25;;;7.40;100.00
57668;BME280;43499;52.366;12.912;2023-03-26T00:30:27;99949.97;;;7.31;100.00
57668;BME280;43499;52.366;12.912;2023-03-26T00:31:29;99935.44;;;7.02;100.00
57668;BME280;43499;52.366;12.912;2023-03-26T00:32:30;99978.44;;;7.38;100.00
57668;BME280;43499;52.366;12.912;2023-03-26T00:33:32;99956.81;;;7.18;100.00
57668;BME280;43499;52.366;12.912;2023-03-26T00:34:38;99977.53;;;7.37;100.00
57668;BME280;43499;52.366;12.912;2023-03-26T00:35:41;99926.69;;;7.01;100.00
57668;BME280;43499;52.366;12.912;2023-03-26T00:36:43;99975.47;;;7.33;100.00
57668;BME280;43499;52.366;12.912;2023-03-26T00:37:46;99918.22;;;6.93;100.00
57668;BME280;43499;52.366;12.912;2023-03-26T00:38:51;99903.72;;;6.87;100.00
57668;BME280;43499;52.366;12.912;2023-03-26T00:39:53;99926.81;;;7.03;100.00
57668;BME280;43499;52.366;12.912;2023-03-26T00:40:59;99941.97;;;7.07;100.00
57668;BME280;43499;52.366;12.912;2023-03-26T00:42:05;99982.03;;;7.28;100.00
57668;BME280;43499;52.366;12.912;2023-03-26T00:43:09;99944.59;;;6.97;100.00
57668;BME280;43499;52.366;12.912;2023-03-26T00:44:18;99979.25;;;7.26;100.00
57668;BME280;43499;52.366;12.912;2023-03-26T00:45:19;99980.06;;;7.25;100.00
57668;BME280;43499;52.366;12.912;2023-03-26T00:46:26;99975.63;;;7.24;100.00
57668;BME280;43499;52.366;12.912;2023-03-26T00:47:27;99975.75;;;7.26;100.00
57668;BME280;43499;52.366;12.912;2023-03-26T00:48:29;99907.28;;;6.87;100.00
57668;BME280;43499;52.366;12.912;2023-03-26T00:49:30;99954.88;;;7.16;100.00
57668;BME280;43499;52.366;12.912;2023-03-26T00:50:31;99969.59;;;7.25;100.00
57668;BME280;43499;52.366;12.912;2023-03-26T00:51:32;99946.28;;;7.06;100.00
57668;BME280;43499;52.366;12.912;2023-03-26T00:52:34;99966.50;;;7.19;100.00
57668;BME280;43499;52.366;12.912;2023-03-26T00:53:36;99888.66;;;6.72;100.00
57668;BME280;43499;52.366;12.912;2023-03-26T00:54:38;99907.50;;;6.90;100.00
57668;BME280;43499;52.366;12.912;2023-03-26T00:55:40;99960.09;;;7.16;100.00
57668;BME280;43499;52.366;12.912;2023-03-26T00:56:42;99961.78;;;7.15;100.00
57668;BME280;43499;52.366;12.912;2023-03-26T00:57:43;99932.59;;;6.99;100.00
57668;BME280;43499;52.366;12.912;2023-03-26T00:58:46;99957.22;;;7.13;100.00
57668;BME280;43499;52.366;12.912;2023-03-26T00:59:49;99942.47;;;7.03;100.00
57668;BME280;43499;52.366;12.912;2023-03-26T01:00:56;99942.88;;;7.07;100.00
57668;BME280;43499;52.366;12.912;2023-03-26T01:01:58;99935.31;;;7.00;100.00
57668;BME280;43499;52.366;12.912;2023-03-26T01:03:01;99964.81;;;7.09;100.00
57668;BME280;43499;52.366;12.912;2023-03-26T01:04:22;99962.97;;;7.08;100.00
57668;BME280;43499;52.366;12.912;2023-03-26T01:05:59;99954.75;;;7.04;100.00
57668;BME280;43499;52.366;12.912;2023-03-26T01:07:15;99876.00;;;6.56;100.00
57668;BME280;43499;52.366;12.912;2023-03-26T01:08:30;99954.13;;;7.06;100.00
57668;BME280;43499;52.366;12.912;2023-03-26T01:09:35;99959.84;;;7.13;100.00
57668;BME280;43499;52.366;12.912;2023-03-26T01:10:37;99912.50;;;6.87;100.00
57668;BME280;43499;52.366;12.912;2023-03-26T01:11:41;99899.59;;;6.78;100.00
57668;BME280;43499;52.366;12.912;2023-03-26T01:12:43;99894.88;;;6.74;100.00
57668;BME280;43499;52.366;12.912;2023-03-26T01:13:47;99908.59;;;6.82;100.00
57668;BME280;43499;52.366;12.912;2023-03-26T01:14:50;99953.94;;;7.15;100.00
57668;BME280;43499;52.366;12.912;2023-03-26T01:15:52;99969.09;;;7.19;100.00
57668;BME280;43499;52.366;12.912;2023-03-26T01:16:59;99939.88;;;7.03;100.00
57668;BME280;43499;52.366;12.912;2023-03-26T01:18:03;99937.03;;;7.00;100.00
57668;BME280;43499;52.366;12.912;2023-03-26T01:19:59;99970.94;;;7.20;100.00
57668;BME280;43499;52.366;12.912;2023-03-26T01:20:34;99919.41;;;6.87;100.00
57668;BME280;43499;52.366;12.912;2023-03-26T01:21:38;99961.53;;;7.22;100.00
57668;BME280;43499;52.366;12.912;2023-03-26T01:22:46;99979.81;;;7.22;100.00
57668;BME280;43499;52.366;12.912;2023-03-26T01:24:02;99977.22;;;7.22;100.00
57668;BME280;43499;52.366;12.912;2023-03-26T01:25:05;99973.91;;;7.25;100.00
57668;BME280;43499;52.366;12.912;2023-03-26T01:26:20;99952.00;;;7.13;100.00
57668;BME280;43499;52.366;12.912;2023-03-26T01:27:39;99966.78;;;7.12;100.00
57668;BME280;43499;52.366;12.912;2023-03-26T01:28:42;99947.47;;;7.00;100.00
57668;BME280;43499;52.366;12.912;2023-03-26T01:29:49;99940.44;;;6.99;100.00
57668;BME280;43499;52.366;12.912;2023-03-26T01:31:38;99962.09;;;7.08;100.00
57668;BME280;43499;52.366;12.912;2023-03-26T01:34:43;99912.78;;;6.70;100.00
57668;BME280;43499;52.366;12.912;2023-03-26T01:35:51;99972.00;;;7.12;100.00
57668;BME280;43499;52.366;12.912;2023-03-26T01:37:09;99950.22;;;7.01;100.00
57668;BME280;43499;52.366;12.912;2023-03-26T01:38:23;99963.38;;;7.13;100.00
57668;BME280;43499;52.366;12.912;2023-03-26T01:39:32;99970.69;;;7.17;100.00
57668;BME280;43499;52.366;12.912;2023-03-26T01:40:46;99950.19;;;7.12;100.00
57668;BME280;43499;52.366;12.912;2023-03-26T01:41:53;99974.84;;;7.15;100.00
57668;BME280;43499;52.366;12.912;2023-03-26T01:43:08;99970.41;;;7.14;100.00
57668;BME280;43499;52.366;12.912;2023-03-26T01:45:23;99976.84;;;7.18;100.00
57668;BME280;43499;52.366;12.912;2023-03-26T01:46:27;99958.94;;;7.12;100.00
57668;BME280;43499;52.366;12.912;2023-03-26T01:47:30;99970.69;;;7.17;100.00
57668;BME280;43499;52.366;12.912;2023-03-26T01:48:38;99937.06;;;6.89;100.00
57668;BME280;43499;52.366;12.912;2023-03-26T01:49:40;99970.81;;;7.19;100.00
57668;BME280;43499;52.366;12.912;2023-03-26T01:50:41;99967.81;;;7.14;100.00
57668;BME280;43499;52.366;12.912;2023-03-26T01:51:42;99943.25;;;7.02;100.00
57668;BME280;43499;52.366;12.912;2023-03-26T01:52:43;99937.56;;;6.95;100.00
57668;BME280;43499;52.366;12.912;2023-03-26T01:53:46;99956.34;;;7.12;100.00
57668;BME280;43499;52.366;12.912;2023-03-26T01:54:48;99935.69;;;7.05;100.00
57668;BME280;43499;52.366;12.912;2023-03-26T01:56:09;99950.47;;;7.04;100.00
57668;BME280;43499;52.366;12.912;2023-03-26T01:57:22;99975.78;;;7.16;100.00
57668;BME280;43499;52.366;12.912;2023-03-26T01:58:36;99965.44;;;7.17;100.00
57668;BME280;43499;52.366;12.912;2023-03-26T01:59:53;99928.41;;;6.90;100.00
57668;BME280;43499;52.366;12.912;2023-03-26T02:01:16;99909.38;;;6.81;100.00
57668;BME280;43499;52.366;12.912;2023-03-26T02:02:47;99979.84;;;7.12;100.00
57668;BME280;43499;52.366;12.912;2023-03-26T02:04:09;99924.91;;;6.90;100.00
57668;BME280;43499;52.366;12.912;2023-03-26T02:05:24;99951.50;;;7.06;100.00
57668;BME280;43499;52.366;12.912;2023-03-26T02:06:43;99965.19;;;7.14;100.00
57668;BME280;43499;52.366;12.912;2023-03-26T02:07:57;99986.31;;;7.28;100.00
57668;BME280;43499;52.366;12.912;2023-03-26T02:09:23;99942.75;;;7.06;100.00
57668;BME280;43499;52.366;12.912;2023-03-26T02:10:28;99952.03;;;7.02;100.00
57668;BME280;43499;52.366;12.912;2023-03-26T02:11:29;99939.66;;;7.00;100.00
57668;BME280;43499;52.366;12.912;2023-03-26T02:12:31;99969.78;;;7.17;100.00
57668;BME280;43499;52.366;12.912;2023-03-26T02:13:32;99959.09;;;7.03;100.00
57668;BME280;43499;52.366;12.912;2023-03-26T02:14:34;99948.78;;;6.94;100.00
57668;BME280;43499;52.366;12.912;2023-03-26T02:15:35;99996.41;;;7.23;100.00
57668;BME280;43499;52.366;12.912;2023-03-26T02:16:36;99988.84;;;7.16;100.00
57668;BME280;43499;52.366;12.912;2023-03-26T02:17:37;99940.94;;;6.94;100.00
57668;BME280;43499;52.366;12.912;2023-03-26T02:18:46;99963.28;;;7.01;100.00
57668;BME280;43499;52.366;12.912;2023-03-26T02:19:51;99951.78;;;6.99;100.00
57668;BME280;43499;52.366;12.912;2023-03-26T02:20:52;99999.56;;;7.19;100.00
57668;BME280;43499;52.366;12.912;2023-03-26T02:21:53;100001.91;;;7.26;100.00
57668;BME280;43499;52.366;12.912;2023-03-26T02:23:00;100012.34;;;7.26;100.00
57668;BME280;43499;52.366;12.912;2023-03-26T02:24:02;99980.88;;;7.14;100.00
57668;BME280;43499;52.366;12.912;2023-03-26T02:25:11;99934.31;;;6.77;100.00
57668;BME280;43499;52.366;12.912;2023-03-26T02:26:16;99926.50;;;6.77;100.00
57668;BME280;43499;52.366;12.912;2023-03-26T02:27:28;100006.09;;;7.14;100.00
57668;BME280;43499;52.366;12.912;2023-03-26T02:28:29;99964.47;;;6.84;100.00
57668;BME280;43499;52.366;12.912;2023-03-26T02:29:30;99942.81;;;6.75;100.00
57668;BME280;43499;52.366;12.912;2023-03-26T02:30:32;100002.84;;;7.06;100.00
57668;BME280;43499;52.366;12.912;2023-03-26T02:31:34;100015.78;;;7.15;100.00
57668;BME280;43499;52.366;12.912;2023-03-26T02:32:35;100000.38;;;7.07;100.00
57668;BME280;43499;52.366;12.912;2023-03-26T02:33:39;100006.63;;;7.09;100.00
57668;BME280;43499;52.366;12.912;2023-03-26T02:34:41;99997.13;;;7.00;100.00
57668;BME280;43499;52.366;12.912;2023-03-26T02:35:42;99960.81;;;6.82;100.00
57668;BME280;43499;52.366;12.912;2023-03-26T02:36:46;100007.56;;;7.10;100.00
57668;BME280;43499;52.366;12.912;2023-03-26T02:37:47;99941.50;;;6.70;100.00
57668;BME280;43499;52.366;12.912;2023-03-26T02:38:53;100006.78;;;7.11;100.00
57668;BME280;43499;52.366;12.912;2023-03-26T02:39:55;100012.63;;;7.08;100.00
57668;BME280;43499;52.366;12.912;2023-03-26T02:41:04;99987.47;;;6.99;100.00
57668;BME280;43499;52.366;12.912;2023-03-26T02:42:20;99960.44;;;6.77;100.00
57668;BME280;43499;52.366;12.912;2023-03-26T02:43:22;99958.75;;;6.78;100.00
57668;BME280;43499;52.366;12.912;2023-03-26T02:44:23;99995.00;;;7.06;100.00
57668;BME280;43499;52.366;12.912;2023-03-26T02:45:34;99956.94;;;6.77;100.00
57668;BME280;43499;52.366;12.912;2023-03-26T02:46:41;99962.38;;;6.80;100.00
57668;BME280;43499;52.366;12.912;2023-03-26T02:48:00;100010.84;;;7.07;100.00
57668;BME280;43499;52.366;12.912;2023-03-26T02:49:21;99963.44;;;6.82;100.00
57668;BME280;43499;52.366;12.912;2023-03-26T02:50:22;100008.59;;;7.12;100.00
57668;BME280;43499;52.366;12.912;2023-03-26T02:51:44;99963.16;;;6.79;100.00
57668;BME280;43499;52.366;12.912;2023-03-26T02:52:55;99989.50;;;7.03;100.00
57668;BME280;43499;52.366;12.912;2023-03-26T02:53:57;99982.47;;;7.02;100.00
57668;BME280;43499;52.366;12.912;2023-03-26T02:55:15;99994.50;;;7.00;100.00
57668;BME280;43499;52.366;12.912;2023-03-26T02:56:18;99958.09;;;6.81;100.00
57668;BME280;43499;52.366;12.912;2023-03-26T02:57:33;100016.28;;;7.10;100.00
57668;BME280;43499;52.366;12.912;2023-03-26T02:58:43;100001.16;;;7.06;100.00
57668;BME280;43499;52.366;12.912;2023-03-26T02:59:44;99945.31;;;6.63;100.00
57668;BME280;43499;52.366;12.912;2023-03-26T03:01:14;99998.06;;;6.79;100.00
57668;BME280;43499;52.366;12.912;2023-03-26T03:02:24;100014.38;;;6.98;100.00
57668;BME280;43499;52.366;12.912;2023-03-26T03:03:28;100008.50;;;6.90;100.00
57668;BME280;43499;52.366;12.912;2023-03-26T03:04:57;100018.94;;;7.00;100.00
57668;BME280;43499;52.366;12.912;2023-03-26T03:06:03;100003.16;;;6.78;100.00
57668;BME280;43499;52.366;12.912;2023-03-26T03:07:10;99975.47;;;6.70;100.00
57668;BME280;43499;52.366;12.912;2023-03-26T03:08:14;99960.75;;;6.60;100.00
57668;BME280;43499;52.366;12.912;2023-03-26T03:09:31;100011.78;;;6.87;100.00
57668;BME280;43499;52.366;12.912;2023-03-26T03:11:07;100013.22;;;6.84;100.00
57668;BME280;43499;52.366;12.912;2023-03-26T03:12:19;99962.31;;;6.58;100.00
57668;BME280;43499;52.366;12.912;2023-03-26T03:13:21;99994.66;;;6.81;100.00
57668;BME280;43499;52.366;12.912;2023-03-26T03:14:22;99999.50;;;6.76;100.00
57668;BME280;43499;52.366;12.912;2023-03-26T03:15:23;99995.19;;;6.66;100.00
57668;BME280;43499;52.366;12.912;2023-03-26T03:16:25;100019.47;;;6.86;100.00
57668;BME280;43499;52.366;12.912;2023-03-26T03:17:27;99993.25;;;6.63;100.00
57668;BME280;43499;52.366;12.912;2023-03-26T03:18:28;100023.00;;;6.86;100.00
57668;BME280;43499;52.366;12.912;2023-03-26T03:19:29;99977.97;;;6.58;100.00
57668;BME280;43499;52.366;12.912;2023-03-26T03:20:30;99952.00;;;6.49;100.00
57668;BME280;43499;52.366;12.912;2023-03-26T03:21:34;99965.03;;;6.49;100.00
57668;BME280;43499;52.366;12.912;2023-03-26T03:22:36;100021.69;;;6.81;100.00
57668;BME280;43499;52.366;12.912;2023-03-26T03:23:37;99970.00;;;6.46;100.00
57668;BME280;43499;52.366;12.912;2023-03-26T03:24:43;100023.53;;;6.82;100.00
57668;BME280;43499;52.366;12.912;2023-03-26T03:25:44;99966.59;;;6.47;100.00
57668;BME280;43499;52.366;12.912;2023-03-26T03:26:45;100005.25;;;6.61;100.00
57668;BME280;43499;52.366;12.912;2023-03-26T03:27:56;99988.25;;;6.56;100.00
57668;BME280;43499;52.366;12.912;2023-03-26T03:28:57;99955.91;;;6.33;100.00
57668;BME280;43499;52.366;12.912;2023-03-26T03:29:58;100018.19;;;6.70;100.00
57668;BME280;43499;52.366;12.912;2023-03-26T03:31:19;100002.91;;;6.54;100.00
57668;BME280;43499;52.366;12.912;2023-03-26T03:32:22;100027.31;;;6.65;100.00
57668;BME280;43499;52.366;12.912;2023-03-26T03:33:27;99993.25;;;6.32;100.00
57668;BME280;43499;52.366;12.912;2023-03-26T03:34:28;100019.34;;;6.43;100.00
57668;BME280;43499;52.366;12.912;2023-03-26T03:35:38;99992.31;;;6.22;100.00
57668;BME280;43499;52.366;12.912;2023-03-26T03:36:40;99942.91;;;5.94;100.00
57668;BME280;43499;52.366;12.912;2023-03-26T03:37:50;99989.56;;;6.20;100.00
57668;BME280;43499;52.366;12.912;2023-03-26T03:38:52;99977.53;;;6.12;100.00
57668;BME280;43499;52.366;12.912;2023-03-26T03:39:55;100024.69;;;6.44;100.00
57668;BME280;43499;52.366;12.912;2023-03-26T03:40:58;100019.09;;;6.40;100.00
57668;BME280;43499;52.366;12.912;2023-03-26T03:42:02;100011.63;;;6.34;100.00
57668;BME280;43499;52.366;12.912;2023-03-26T03:43:03;100029.66;;;6.41;100.00
57668;BME280;43499;52.366;12.912;2023-03-26T03:44:13;100030.97;;;6.46;100.00
57668;BME280;43499;52.366;12.912;2023-03-26T03:45:14;100022.97;;;6.45;100.00
57668;BME280;43499;52.366;12.912;2023-03-26T03:46:27;99979.00;;;6.18;100.00
57668;BME280;43499;52.366;12.912;2023-03-26T03:47:29;99994.41;;;6.26;100.00
57668;BME280;43499;52.366;12.912;2023-03-26T03:48:30;99985.81;;;6.27;100.00
57668;BME280;43499;52.366;12.912;2023-03-26T03:49:31;100016.88;;;6.44;100.00
57668;BME280;43499;52.366;12.912;2023-03-26T03:50:32;99974.31;;;6.25;100.00
57668;BME280;43499;52.366;12.912;2023-03-26T03:51:54;99988.53;;;6.28;100.00
57668;BME280;43499;52.366;12.912;2023-03-26T03:53:08;100015.44;;;6.48;100.00
57668;BME280;43499;52.366;12.912;2023-03-26T03:54:09;100033.31;;;6.54;100.00
57668;BME280;43499;52.366;12.912;2023-03-26T03:55:19;100028.47;;;6.48;100.00
57668;BME280;43499;52.366;12.912;2023-03-26T03:56:24;99985.13;;;6.19;100.00
57668;BME280;43499;52.366;12.912;2023-03-26T03:57:53;99989.56;;;6.20;100.00
57668;BME280;43499;52.366;12.912;2023-03-26T03:58:57;100039.06;;;6.50;100.00
57668;BME280;43499;52.366;12.912;2023-03-26T04:00:06;100033.31;;;6.43;100.00
57668;BME280;43499;52.366;12.912;2023-03-26T04:01:17;99992.19;;;6.20;100.00
57668;BME280;43499;52.366;12.912;2023-03-26T04:02:41;99981.88;;;6.22;100.00
57668;BME280;43499;52.366;12.912;2023-03-26T04:03:42;100012.53;;;6.35;100.00
57668;BME280;43499;52.366;12.912;2023-03-26T04:04:47;100039.84;;;6.59;100.00
57668;BME280;43499;52.366;12.912;2023-03-26T04:05:50;100015.81;;;6.42;100.00
57668;BME280;43499;52.366;12.912;2023-03-26T04:06:55;100004.31;;;6.40;100.00
57668;BME280;43499;52.366;12.912;2023-03-26T04:07:59;100034.25;;;6.64;100.00
57668;BME280;43499;52.366;12.912;2023-03-26T04:09:00;99978.59;;;6.35;100.00
57668;BME280;43499;52.366;12.912;2023-03-26T04:10:02;100036.31;;;6.69;100.00
57668;BME280;43499;52.366;12.912;2023-03-26T04:11:14;100021.69;;;6.50;100.00
57668;BME280;43499;52.366;12.912;2023-03-26T04:12:34;99961.38;;;6.26;100.00
57668;BME280;43499;52.366;12.912;2023-03-26T04:13:36;99982.81;;;6.32;100.00
57668;BME280;43499;52.366;12.912;2023-03-26T04:15:07;100024.44;;;6.52;100.00
57668;BME280;43499;52.366;12.912;2023-03-26T04:16:08;100009.03;;;6.44;100.00
57668;BME280;43499;52.366;12.912;2023-03-26T04:17:11;99995.88;;;6.43;100.00
57668;BME280;43499;52.366;12.912;2023-03-26T04:18:13;99985.03;;;6.38;100.00
57668;BME280;43499;52.366;12.912;2023-03-26T04:19:17;99994.16;;;6.43;100.00
57668;BME280;43499;52.366;12.912;2023-03-26T04:20:18;100026.13;;;6.61;100.00
57668;BME280;43499;52.366;12.912;2023-03-26T04:21:22;100005.66;;;6.45;100.00
57668;BME280;43499;52.366;12.912;2023-03-26T04:22:24;99969.34;;;6.28;100.00
57668;BME280;43499;52.366;12.912;2023-03-26T04:23:38;100033.84;;;6.70;100.00
57668;BME280;43499;52.366;12.912;2023-03-26T04:24:50;100005.13;;;6.50;100.00
57668;BME280;43499;52.366;12.912;2023-03-26T04:26:05;99990.75;;;6.44;100.00
57668;BME280;43499;52.366;12.912;2023-03-26T04:27:29;100027.19;;;6.63;100.00
57668;BME280;43499;52.366;12.912;2023-03-26T04:28:57;100005.53;;;6.44;100.00
57668;BME280;43499;52.366;12.912;2023-03-26T04:30:04;100006.03;;;6.40;100.00
57668;BME280;43499;52.366;12.912;2023-03-26T04:31:08;99980.59;;;6.27;100.00
57668;BME280;43499;52.366;12.912;2023-03-26T04:32:21;100046.75;;;6.69;100.00
57668;BME280;43499;52.366;12.912;2023-03-26T04:33:22;99987.75;;;6.40;100.00
57668;BME280;43499;52.366;12.912;2023-03-26T04:34:24;100029.91;;;6.65;100.00
57668;BME280;43499;52.366;12.912;2023-03-26T04:35:39;100029.81;;;6.63;100.00
57668;BME280;43499;52.366;12.912;2023-03-26T04:36:42;99968.44;;;6.27;100.00
57668;BME280;43499;52.366;12.912;2023-03-26T04:37:43;100032.03;;;6.69;100.00
57668;BME280;43499;52.366;12.912;2023-03-26T04:38:48;100009.53;;;6.51;100.00
57668;BME280;43499;52.366;12.912;2023-03-26T04:39:53;100038.31;;;6.71;100.00
57668;BME280;43499;52.366;12.912;2023-03-26T04:41:13;100022.09;;;6.65;100.00
57668;BME280;43499;52.366;12.912;2023-03-26T04:42:21;100003.03;;;6.45;100.00
57668;BME280;43499;52.366;12.912;2023-03-26T04:43:34;100004.09;;;6.47;100.00
57668;BME280;43499;52.366;12.912;2023-03-26T04:44:52;100006.31;;;6.53;100.00
57668;BME280;43499;52.366;12.912;2023-03-26T04:45:53;100017.81;;;6.55;100.00
57668;BME280;43499;52.366;12.912;2023-03-26T04:46:56;100040.75;;;6.70;100.00
57668;BME280;43499;52.366;12.912;2023-03-26T04:48:04;100039.97;;;6.71;100.00
57668;BME280;43499;52.366;12.912;2023-03-26T04:49:07;100038.81;;;6.67;100.00
57668;BME280;43499;52.366;12.912;2023-03-26T04:50:09;100028.47;;;6.69;100.00
57668;BME280;43499;52.366;12.912;2023-03-26T04:51:15;100011.13;;;6.59;100.00
57668;BME280;43499;52.366;12.912;2023-03-26T04:52:18;100037.63;;;6.74;100.00
57668;BME280;43499;52.366;12.912;2023-03-26T04:53:41;100020.91;;;6.61;100.00
57668;BME280;43499;52.366;12.912;2023-03-26T04:54:57;100000.81;;;6.50;100.00
57668;BME280;43499;52.366;12.912;2023-03-26T04:57:52;100033.69;;;6.69;100.00
57668;BME280;43499;52.366;12.912;2023-03-26T04:59:23;99996.38;;;6.39;100.00
57668;BME280;43499;52.366;12.912;2023-03-26T05:00:25;99991.66;;;6.35;100.00
57668;BME280;43499;52.366;12.912;2023-03-26T05:01:31;100030.69;;;6.64;100.00
57668;BME280;43499;52.366;12.912;2023-03-26T05:02:33;100004.31;;;6.40;100.00
57668;BME280;43499;52.366;12.912;2023-03-26T05:03:34;99998.59;;;6.44;100.00
57668;BME280;43499;52.366;12.912;2023-03-26T05:04:42;99973.78;;;6.29;100.00
57668;BME280;43499;52.366;12.912;2023-03-26T05:05:45;99976.25;;;6.38;100.00
57668;BME280;43499;52.366;12.912;2023-03-26T05:06:46;100015.97;;;6.54;100.00
57668;BME280;43499;52.366;12.912;2023-03-26T05:07:56;99969.88;;;6.24;100.00
57668;BME280;43499;52.366;12.912;2023-03-26T05:08:57;99987.22;;;6.33;100.00
57668;BME280;43499;52.366;12.912;2023-03-26T05:10:19;99973.38;;;6.35;100.00
57668;BME280;43499;52.366;12.912;2023-03-26T05:11:36;100003.16;;;6.47;100.00
57668;BME280;43499;52.366;12.912;2023-03-26T05:12:37;99969.59;;;6.31;100.00
57668;BME280;43499;52.366;12.912;2023-03-26T05:13:44;100016.22;;;6.57;100.00
57668;BME280;43499;52.366;12.912;2023-03-26T05:14:47;100022.75;;;6.62;100.00
57668;BME280;43499;52.366;12.912;2023-03-26T05:15:54;99991.41;;;6.42;100.00
57668;BME280;43499;52.366;12.912;2023-03-26T05:17:06;99971.81;;;6.37;100.00
57668;BME280;43499;52.366;12.912;2023-03-26T05:18:11;100048.19;;;6.75;100.00
57668;BME280;43499;52.366;12.912;2023-03-26T05:19:15;99986.31;;;6.43;100.00
57668;BME280;43499;52.366;12.912;2023-03-26T05:20:24;100040.63;;;6.78;100.00
57668;BME280;43499;52.366;12.912;2023-03-26T05:21:26;100025.34;;;6.73;100.00
57668;BME280;43499;52.366;12.912;2023-03-26T05:22:27;100001.47;;;6.58;100.00
57668;BME280;43499;52.366;12.912;2023-03-26T05:23:44;100046.25;;;6.83;100.00
57668;BME280;43499;52.366;12.912;2023-03-26T05:24:51;100019.34;;;6.74;100.00
57668;BME280;43499;52.366;12.912;2023-03-26T05:25:52;100034.22;;;6.85;100.00
57668;BME280;43499;52.366;12.912;2023-03-26T05:26:56;100035.41;;;6.78;100.00
57668;BME280;43499;52.366;12.912;2023-03-26T05:27:58;100004.59;;;6.64;100.00
57668;BME280;43499;52.366;12.912;2023-03-26T05:29:05;99987.47;;;6.57;100.00
57668;BME280;43499;52.366;12.912;2023-03-26T05:30:13;100050.28;;;6.90;100.00
57668;BME280;43499;52.366;12.912;2023-03-26T05:31:18;100042.34;;;6.88;100.00
57668;BME280;43499;52.366;12.912;2023-03-26T05:32:22;99989.31;;;6.58;100.00
57668;BME280;43499;52.366;12.912;2023-03-26T05:33:25;100042.75;;;6.83;100.00
57668;BME280;43499;52.366;12.912;2023-03-26T05:34:34;100022.63;;;6.71;100.00
57668;BME280;43499;52.366;12.912;2023-03-26T05:35:36;100035.53;;;6.80;100.00
57668;BME280;43499;52.366;12.912;2023-03-26T05:36:37;100010.59;;;6.73;100.00
57668;BME280;43499;52.366;12.912;2023-03-26T05:37:57;100050.16;;;6.99;100.00
57668;BME280;43499;52.366;12.912;2023-03-26T05:38:59;99980.03;;;6.52;100.00
57668;BME280;43499;52.366;12.912;2023-03-26T05:40:39;100035.66;;;6.92;100.00
57668;BME280;43499;52.366;12.912;2023-03-26T05:41:41;100047.03;;;6.92;100.00
57668;BME280;43499;52.366;12.912;2023-03-26T05:42:43;100041.53;;;7.00;100.00
57668;BME280;43499;52.366;12.912;2023-03-26T05:44:17;100049.88;;;7.06;100.00
57668;BME280;43499;52.366;12.912;2023-03-26T05:45:19;100035.38;;;6.99;100.00
57668;BME280;43499;52.366;12.912;2023-03-26T05:46:22;100004.84;;;6.77;100.00
57668;BME280;43499;52.366;12.912;2023-03-26T05:47:25;100020.38;;;6.86;100.00
57668;BME280;43499;52.366;12.912;2023-03-26T05:48:26;100046.22;;;7.04;100.00
57668;BME280;43499;52.366;12.912;2023-03-26T05:49:28;100049.09;;;7.07;100.00
57668;BME280;43499;52.366;12.912;2023-03-26T05:50:29;99984.09;;;6.69;100.00
57668;BME280;43499;52.366;12.912;2023-03-26T05:51:33;100036.81;;;7.06;100.00
57668;BME280;43499;52.366;12.912;2023-03-26T05:52:51;100013.22;;;6.94;100.00